sensor_id;sensor_type;location;lat;lon;timestamp;pressure;altitude;pressure_sealevel;temperature;humidity
48630;BME280;34426;52.180;4.462;2023-03-14T00:01:15;98860.13;;;10.41;75.13
48630;BME280;34426;52.180;4.462;2023-03-14T00:03:41;98857.34;;;10.41;74.63
48630;BME280;34426;52.180;4.462;2023-03-14T00:06:10;98859.66;;;10.39;74.65
48630;BME280;34426;52.180;4.462;2023-03-14T00:08:36;98857.34;;;10.41;74.89
48630;BME280;34426;52.180;4.462;2023-03-14T00:11:12;98861.94;;;10.37;74.65
48630;BME280;34426;52.180;4.462;2023-03-14T00:13:38;98858.00;;;10.38;74.96
48630;BME280;34426;52.180;4.462;2023-03-14T00:16:10;98850.09;;;10.40;75.12
48630;BME280;34426;52.180;4.462;2023-03-14T00:18:40;98857.69;;;10.40;75.20
48630;BME280;34426;52.180;4.462;2023-03-14T00:21:23;98850.75;;;10.37;75.34
48630;BME280;34426;52.180;4.462;2023-03-14T00:23:49;98856.97;;;10.34;75.93
48630;BME280;34426;52.180;4.462;2023-03-14T00:26:23;98845.91;;;10.29;76.77
48630;BME280;34426;52.180;4.462;2023-03-14T00:28:53;98852.97;;;10.26;76.89
48630;BME280;34426;52.180;4.462;2023-03-14T00:31:19;98858.44;;;10.18;77.58
48630;BME280;34426;52.180;4.462;2023-03-14T00:33:53;98849.53;;;10.16;77.12
48630;BME280;34426;52.180;4.462;2023-03-14T00:36:24;98866.81;;;10.18;77.25
48630;BME280;34426;52.180;4.462;2023-03-14T00:38:50;98865.66;;;10.19;77.95
48630;BME280;34426;52.180;4.462;2023-03-14T00:41:18;98865.47;;;10.15;78.55
48630;BME280;34426;52.180;4.462;2023-03-14T00:43:50;98860.31;;;10.09;79.11
48630;BME280;34426;52.180;4.462;2023-03-14T00:46:20;98855.34;;;10.06;79.33
48630;BME280;34426;52.180;4.462;2023-03-14T00:48:50;98849.34;;;9.98;79.53
48630;BME280;34426;52.180;4.462;2023-03-14T00:51:18;98860.16;;;9.91;79.65
48630;BME280;34426;52.180;4.462;2023-03-14T00:53:50;98863.25;;;9.90;80.06
48630;BME280;34426;52.180;4.462;2023-03-14T00:56:23;98862.44;;;9.89;79.94
48630;BME280;34426;52.180;4.462;2023-03-14T00:58:53;98861.91;;;9.87;80.44
48630;BME280;34426;52.180;4.462;2023-03-14T01:01:31;98850.84;;;9.82;80.26
48630;BME280;34426;52.180;4.462;2023-03-14T01:03:57;98856.44;;;9.82;81.03
48630;BME280;34426;52.180;4.462;2023-03-14T01:06:28;98862.66;;;9.79;80.75
48630;BME280;34426;52.180;4.462;2023-03-14T01:08:56;98846.53;;;9.76;81.15
48630;BME280;34426;52.180;4.462;2023-03-14T01:11:26;98868.84;;;9.76;81.02
48630;BME280;34426;52.180;4.462;2023-03-14T01:13:53;98858.50;;;9.77;81.49
48630;BME280;34426;52.180;4.462;2023-03-14T01:16:19;98862.13;;;9.77;81.09
48630;BME280;34426;52.180;4.462;2023-03-14T01:18:55;98853.75;;;9.77;80.85
48630;BME280;34426;52.180;4.462;2023-03-14T01:21:23;98844.88;;;9.75;81.54
48630;BME280;34426;52.180;4.462;2023-03-14T01:23:52;98856.03;;;9.75;80.86
48630;BME280;34426;52.180;4.462;2023-03-14T01:26:26;98887.34;;;9.72;80.68
48630;BME280;34426;52.180;4.462;2023-03-14T01:28:56;98844.34;;;9.73;81.25
48630;BME280;34426;52.180;4.462;2023-03-14T01:31:22;98844.03;;;9.75;80.89
48630;BME280;34426;52.180;4.462;2023-03-14T01:33:51;98848.78;;;9.74;81.12
48630;BME280;34426;52.180;4.462;2023-03-14T01:36:17;98850.13;;;9.77;80.80
48630;BME280;34426;52.180;4.462;2023-03-14T01:38:43;98853.75;;;9.77;80.99
48630;BME280;34426;52.180;4.462;2023-03-14T01:41:18;98860.69;;;9.80;80.80
48630;BME280;34426;52.180;4.462;2023-03-14T01:43:51;98851.47;;;9.79;81.32
48630;BME280;34426;52.180;4.462;2023-03-14T01:46:39;98851.47;;;9.79;80.74
48630;BME280;34426;52.180;4.462;2023-03-14T01:49:20;98854.78;;;9.81;81.31
48630;BME280;34426;52.180;4.462;2023-03-14T01:51:50;98853.97;;;9.81;81.46
48630;BME280;34426;52.180;4.462;2023-03-14T01:54:28;98860.88;;;9.83;81.09
48630;BME280;34426;52.180;4.462;2023-03-14T01:57:14;98835.44;;;9.85;80.31
48630;BME280;34426;52.180;4.462;2023-03-14T01:59:50;98835.13;;;9.86;80.65
48630;BME280;34426;52.180;4.462;2023-03-14T02:02:21;98843.19;;;9.88;80.30
48630;BME280;34426;52.180;4.462;2023-03-14T02:04:47;98835.03;;;9.91;80.59
48630;BME280;34426;52.180;4.462;2023-03-14T02:07:19;98836.38;;;9.94;79.91
48630;BME280;34426;52.180;4.462;2023-03-14T02:09:57;98831.28;;;9.96;80.57
48630;BME280;34426;52.180;4.462;2023-03-14T02:12:32;98822.56;;;9.97;79.75
48630;BME280;34426;52.180;4.462;2023-03-14T02:15:04;98821.94;;;10.00;80.36
48630;BME280;34426;52.180;4.462;2023-03-14T02:17:33;98819.97;;;10.01;80.10
48630;BME280;34426;52.180;4.462;2023-03-14T02:20:20;98827.22;;;10.02;79.67
48630;BME280;34426;52.180;4.462;2023-03-14T02:22:53;98831.34;;;10.05;79.26
48630;BME280;34426;52.180;4.462;2023-03-14T02:25:28;98818.53;;;10.04;79.61
48630;BME280;34426;52.180;4.462;2023-03-14T02:27:59;98825.44;;;10.06;78.98
48630;BME280;34426;52.180;4.462;2023-03-14T02:30:27;98811.69;;;10.10;78.89
48630;BME280;34426;52.180;4.462;2023-03-14T02:33:00;98822.53;;;10.11;78.95
48630;BME280;34426;52.180;4.462;2023-03-14T02:35:33;98842.91;;;10.12;78.92
48630;BME280;34426;52.180;4.462;2023-03-14T02:38:03;98818.91;;;10.11;79.01
48630;BME280;34426;52.180;4.462;2023-03-14T02:40:31;98815.00;;;10.12;78.84
48630;BME280;34426;52.180;4.462;2023-03-14T02:42:58;98831.75;;;10.12;78.99
48630;BME280;34426;52.180;4.462;2023-03-14T02:45:39;98814.34;;;10.15;78.36
48630;BME280;34426;52.180;4.462;2023-03-14T02:48:14;98807.13;;;10.14;78.88
48630;BME280;34426;52.180;4.462;2023-03-14T02:50:53;98806.28;;;10.13;78.35
48630;BME280;34426;52.180;4.462;2023-03-14T02:53:23;98803.00;;;10.11;79.04
48630;BME280;34426;52.180;4.462;2023-03-14T02:55:52;98810.53;;;10.11;78.80
48630;BME280;34426;52.180;4.462;2023-03-14T02:58:19;98785.72;;;10.09;78.81
48630;BME280;34426;52.180;4.462;2023-03-14T03:00:48;98803.94;;;10.07;78.79
48630;BME280;34426;52.180;4.462;2023-03-14T03:03:16;98796.38;;;10.07;78.95
48630;BME280;34426;52.180;4.462;2023-03-14T03:05:42;98799.47;;;10.06;78.96
48630;BME280;34426;52.180;4.462;2023-03-14T03:08:08;98793.38;;;10.04;78.51
48630;BME280;34426;52.180;4.462;2023-03-14T03:10:38;98802.41;;;10.00;79.00
48630;BME280;34426;52.180;4.462;2023-03-14T03:13:07;98788.94;;;10.02;79.32
48630;BME280;34426;52.180;4.462;2023-03-14T03:15:37;98787.28;;;10.01;79.70
48630;BME280;34426;52.180;4.462;2023-03-14T03:18:06;98792.03;;;10.01;79.80
48630;BME280;34426;52.180;4.462;2023-03-14T03:21:00;98791.22;;;10.00;79.69
48630;BME280;34426;52.180;4.462;2023-03-14T03:23:27;98787.28;;;10.01;79.26
48630;BME280;34426;52.180;4.462;2023-03-14T03:25:52;98783.34;;;10.02;78.97
48630;BME280;34426;52.180;4.462;2023-03-14T03:28:26;98784.19;;;10.03;78.96
48630;BME280;34426;52.180;4.462;2023-03-14T03:30:56;98786.66;;;10.05;79.57
48630;BME280;34426;52.180;4.462;2023-03-14T03:33:28;98782.22;;;10.04;79.61
48630;BME280;34426;52.180;4.462;2023-03-14T03:35:54;98774.66;;;10.04;79.29
48630;BME280;34426;52.180;4.462;2023-03-14T03:38:27;98777.78;;;10.02;79.01
48630;BME280;34426;52.180;4.462;2023-03-14T03:40:56;98785.00;;;10.04;79.60
48630;BME280;34426;52.180;4.462;2023-03-14T03:43:24;98783.88;;;10.05;79.53
48630;BME280;34426;52.180;4.462;2023-03-14T03:45:52;98778.41;;;9.99;79.61
48630;BME280;34426;52.180;4.462;2023-03-14T03:48:20;98782.22;;;10.04;80.11
48630;BME280;34426;52.180;4.462;2023-03-14T03:50:48;98781.06;;;10.05;79.89
48630;BME280;34426;52.180;4.462;2023-03-14T03:53:13;98786.16;;;10.02;79.95
48630;BME280;34426;52.180;4.462;2023-03-14T03:55:42;98783.34;;;10.02;79.93
48630;BME280;34426;52.180;4.462;2023-03-14T03:58:11;98792.88;;;10.01;80.20
48630;BME280;34426;52.180;4.462;2023-03-14T04:00:42;98800.44;;;10.01;82.04
48630;BME280;34426;52.180;4.462;2023-03-14T04:03:08;98807.13;;;9.78;85.05
48630;BME280;34426;52.180;4.462;2023-03-14T04:05:41;98796.06;;;9.59;86.31
48630;BME280;34426;52.180;4.462;2023-03-14T04:08:10;98785.56;;;9.42;87.74
48630;BME280;34426;52.180;4.462;2023-03-14T04:10:38;98800.56;;;9.32;88.18
48630;BME280;34426;52.180;4.462;2023-03-14T04:13:13;98791.78;;;9.25;89.04
48630;BME280;34426;52.180;4.462;2023-03-14T04:15:44;98801.38;;;9.19;89.17
48630;BME280;34426;52.180;4.462;2023-03-14T04:18:10;98794.25;;;9.13;90.21
48630;BME280;34426;52.180;4.462;2023-03-14T04:20:38;98794.06;;;9.10;90.28
48630;BME280;34426;52.180;4.462;2023-03-14T04:23:05;98806.34;;;9.09;89.97
48630;BME280;34426;52.180;4.462;2023-03-14T04:25:33;98793.84;;;9.06;91.29
48630;BME280;34426;52.180;4.462;2023-03-14T04:28:01;98789.50;;;9.00;91.29
48630;BME280;34426;52.180;4.462;2023-03-14T04:30:33;98787.34;;;8.97;92.44
48630;BME280;34426;52.180;4.462;2023-03-14T04:33:06;98785.97;;;8.94;92.66
48630;BME280;34426;52.180;4.462;2023-03-14T04:35:32;98779.88;;;8.92;92.54
48630;BME280;34426;52.180;4.462;2023-03-14T04:37:58;98779.59;;;8.94;92.92
48630;BME280;34426;52.180;4.462;2023-03-14T04:40:33;98769.88;;;8.91;92.74
48630;BME280;34426;52.180;4.462;2023-03-14T04:43:05;98776.28;;;8.92;93.16
48630;BME280;34426;52.180;4.462;2023-03-14T04:45:30;98774.63;;;8.91;93.25
48630;BME280;34426;52.180;4.462;2023-03-14T04:50:48;98784.94;;;8.90;93.92
48630;BME280;34426;52.180;4.462;2023-03-14T04:53:33;98775.75;;;8.90;93.77
48630;BME280;34426;52.180;4.462;2023-03-14T04:56:07;98780.81;;;8.88;93.31
48630;BME280;34426;52.180;4.462;2023-03-14T04:58:32;98785.25;;;8.89;93.63
48630;BME280;34426;52.180;4.462;2023-03-14T05:01:07;98791.97;;;8.88;93.94
48630;BME280;34426;52.180;4.462;2023-03-14T05:06:27;98792.78;;;8.88;94.88
48630;BME280;34426;52.180;4.462;2023-03-14T05:08:59;98800.63;;;8.86;94.01
48630;BME280;34426;52.180;4.462;2023-03-14T05:11:30;98810.44;;;8.84;94.39
48630;BME280;34426;52.180;4.462;2023-03-14T05:13:59;98815.28;;;8.78;94.48
48630;BME280;34426;52.180;4.462;2023-03-14T05:16:28;98833.81;;;8.69;94.29
48630;BME280;34426;52.180;4.462;2023-03-14T05:18:57;98834.41;;;8.52;94.45
48630;BME280;34426;52.180;4.462;2023-03-14T05:21:23;98852.50;;;8.36;93.63
48630;BME280;34426;52.180;4.462;2023-03-14T05:23:49;98857.31;;;8.12;94.00
48630;BME280;34426;52.180;4.462;2023-03-14T05:26:24;98866.59;;;7.83;93.32
48630;BME280;34426;52.180;4.462;2023-03-14T05:28:55;98865.19;;;7.67;93.86
48630;BME280;34426;52.180;4.462;2023-03-14T05:31:29;98884.28;;;7.50;94.16
48630;BME280;34426;52.180;4.462;2023-03-14T05:33:57;98881.09;;;7.38;94.28
48630;BME280;34426;52.180;4.462;2023-03-14T05:36:26;98887.47;;;7.38;95.26
48630;BME280;34426;52.180;4.462;2023-03-14T05:38:51;98898.44;;;7.29;95.15
48630;BME280;34426;52.180;4.462;2023-03-14T05:41:24;98907.69;;;7.25;95.17
48630;BME280;34426;52.180;4.462;2023-03-14T05:43:49;98907.44;;;7.21;95.51
48630;BME280;34426;52.180;4.462;2023-03-14T05:46:17;98914.13;;;7.20;95.84
48630;BME280;34426;52.180;4.462;2023-03-14T05:48:43;98916.34;;;7.18;95.59
48630;BME280;34426;52.180;4.462;2023-03-14T05:51:11;98927.44;;;7.23;95.78
48630;BME280;34426;52.180;4.462;2023-03-14T05:53:39;98942.75;;;7.21;95.78
48630;BME280;34426;52.180;4.462;2023-03-14T05:56:10;98946.94;;;7.18;95.86
48630;BME280;34426;52.180;4.462;2023-03-14T05:58:37;98947.81;;;7.14;95.85
48630;BME280;34426;52.180;4.462;2023-03-14T06:01:12;98955.88;;;7.15;96.01
48630;BME280;34426;52.180;4.462;2023-03-14T06:03:49;98960.59;;;7.15;95.89
48630;BME280;34426;52.180;4.462;2023-03-14T06:06:15;98968.28;;;6.94;95.89
48630;BME280;34426;52.180;4.462;2023-03-14T06:08:41;98979.75;;;6.87;95.90
48630;BME280;34426;52.180;4.462;2023-03-14T06:11:07;98983.41;;;6.83;95.49
48630;BME280;34426;52.180;4.462;2023-03-14T06:13:36;98987.03;;;6.78;95.47
48630;BME280;34426;52.180;4.462;2023-03-14T06:16:04;98998.44;;;6.77;95.49
48630;BME280;34426;52.180;4.462;2023-03-14T06:18:30;98996.78;;;6.76;95.78
48630;BME280;34426;52.180;4.462;2023-03-14T06:21:05;98993.47;;;6.74;95.43
48630;BME280;34426;52.180;4.462;2023-03-14T06:23:32;98997.59;;;6.76;95.79
48630;BME280;34426;52.180;4.462;2023-03-14T06:26:04;99004.00;;;6.77;95.78
48630;BME280;34426;52.180;4.462;2023-03-14T06:28:35;99015.09;;;6.77;95.47
48630;BME280;34426;52.180;4.462;2023-03-14T06:31:01;99027.34;;;6.76;95.27
48630;BME280;34426;52.180;4.462;2023-03-14T06:33:30;99038.75;;;6.74;95.55
48630;BME280;34426;52.180;4.462;2023-03-14T06:35:59;99043.72;;;6.77;95.30
48630;BME280;34426;52.180;4.462;2023-03-14T06:38:25;99039.03;;;6.73;94.72
48630;BME280;34426;52.180;4.462;2023-03-14T06:40:53;99046.25;;;6.74;95.14
48630;BME280;34426;52.180;4.462;2023-03-14T06:43:19;99058.44;;;6.78;95.34
48630;BME280;34426;52.180;4.462;2023-03-14T06:45:53;99069.53;;;6.83;95.38
48630;BME280;34426;52.180;4.462;2023-03-14T06:48:20;99074.25;;;6.82;95.04
48630;BME280;34426;52.180;4.462;2023-03-14T06:50:47;99078.69;;;6.83;95.14
48630;BME280;34426;52.180;4.462;2023-03-14T06:53:15;99098.47;;;6.77;94.09
48630;BME280;34426;52.180;4.462;2023-03-14T06:55:41;99094.88;;;6.71;93.14
48630;BME280;34426;52.180;4.462;2023-03-14T06:58:10;99103.81;;;6.63;92.69
48630;BME280;34426;52.180;4.462;2023-03-14T07:00:36;99116.03;;;6.62;92.80
48630;BME280;34426;52.180;4.462;2023-03-14T07:03:08;99130.19;;;6.65;92.84
48630;BME280;34426;52.180;4.462;2023-03-14T07:05:34;99140.72;;;6.68;92.97
48630;BME280;34426;52.180;4.462;2023-03-14T07:08:00;99156.81;;;6.72;92.49
48630;BME280;34426;52.180;4.462;2023-03-14T07:10:33;99161.00;;;6.74;92.35
48630;BME280;34426;52.180;4.462;2023-03-14T07:13:02;99165.97;;;6.77;92.48
48630;BME280;34426;52.180;4.462;2023-03-14T07:15:27;99182.09;;;6.80;92.27
48630;BME280;34426;52.180;4.462;2023-03-14T07:17:56;99197.63;;;6.81;92.91
48630;BME280;34426;52.180;4.462;2023-03-14T07:20:26;99214.72;;;6.49;92.44
48630;BME280;34426;52.180;4.462;2023-03-14T07:23:02;99231.97;;;6.16;92.77
48630;BME280;34426;52.180;4.462;2023-03-14T07:25:31;99239.22;;;6.02;93.32
48630;BME280;34426;52.180;4.462;2023-03-14T07:28:00;99248.03;;;5.88;93.68
48630;BME280;34426;52.180;4.462;2023-03-14T07:30:39;99251.66;;;5.84;93.42
48630;BME280;34426;52.180;4.462;2023-03-14T07:33:06;99260.22;;;5.72;93.57
48630;BME280;34426;52.180;4.462;2023-03-14T07:35:37;99294.06;;;5.69;93.87
48630;BME280;34426;52.180;4.462;2023-03-14T07:38:02;99290.72;;;5.57;93.66
48630;BME280;34426;52.180;4.462;2023-03-14T07:40:48;99310.16;;;5.62;94.00
48630;BME280;34426;52.180;4.462;2023-03-14T07:43:20;99325.13;;;5.56;92.94
48630;BME280;34426;52.180;4.462;2023-03-14T07:45:48;99343.94;;;5.49;93.15
48630;BME280;34426;52.180;4.462;2023-03-14T07:48:21;99342.25;;;5.43;92.93
48630;BME280;34426;52.180;4.462;2023-03-14T07:50:48;99371.63;;;5.39;93.18
48630;BME280;34426;52.180;4.462;2023-03-14T07:53:14;99379.97;;;5.44;93.30
48630;BME280;34426;52.180;4.462;2023-03-14T07:55:49;99388.31;;;5.49;92.69
48630;BME280;34426;52.180;4.462;2023-03-14T07:58:30;99396.63;;;5.49;92.75
48630;BME280;34426;52.180;4.462;2023-03-14T08:00:57;99398.31;;;5.55;91.69
48630;BME280;34426;52.180;4.462;2023-03-14T08:03:23;99401.69;;;5.67;92.14
48630;BME280;34426;52.180;4.462;2023-03-14T08:05:50;99424.47;;;5.74;91.89
48630;BME280;34426;52.180;4.462;2023-03-14T08:08:19;99430.78;;;5.64;90.97
48630;BME280;34426;52.180;4.462;2023-03-14T08:13:55;99469.25;;;5.46;91.87
48630;BME280;34426;52.180;4.462;2023-03-14T08:19:16;99469.94;;;5.21;89.30
48630;BME280;34426;52.180;4.462;2023-03-14T08:21:48;99487.97;;;5.23;89.62
48630;BME280;34426;52.180;4.462;2023-03-14T08:24:19;99492.31;;;5.09;88.22
48630;BME280;34426;52.180;4.462;2023-03-14T08:26:50;99508.47;;;5.22;88.90
48630;BME280;34426;52.180;4.462;2023-03-14T08:29:40;99519.56;;;5.22;86.73
48630;BME280;34426;52.180;4.462;2023-03-14T08:32:11;99531.91;;;5.42;88.39
48630;BME280;34426;52.180;4.462;2023-03-14T08:34:37;99541.47;;;5.61;88.44
48630;BME280;34426;52.180;4.462;2023-03-14T08:37:10;99542.34;;;5.72;86.42
48630;BME280;34426;52.180;4.462;2023-03-14T08:41:10;99561.56;;;5.83;87.73
48630;BME280;34426;52.180;4.462;2023-03-14T08:42:25;99570.00;;;5.98;86.70
48630;BME280;34426;52.180;4.462;2023-03-14T08:44:59;99583.94;;;6.14;86.53
48630;BME280;34426;52.180;4.462;2023-03-14T08:48:14;99595.63;;;6.21;83.50
48630;BME280;34426;52.180;4.462;2023-03-14T08:50:31;99621.19;;;6.23;84.26
48630;BME280;34426;52.180;4.462;2023-03-14T08:55:47;99626.78;;;6.28;81.98
48630;BME280;34426;52.180;4.462;2023-03-14T08:58:25;99635.09;;;6.28;82.04
48630;BME280;34426;52.180;4.462;2023-03-14T09:00:55;99641.25;;;6.35;82.90
48630;BME280;34426;52.180;4.462;2023-03-14T09:03:21;99649.53;;;6.25;82.38
48630;BME280;34426;52.180;4.462;2023-03-14T09:05:46;99660.91;;;6.23;81.66
48630;BME280;34426;52.180;4.462;2023-03-14T09:08:12;99671.22;;;6.33;82.21
48630;BME280;34426;52.180;4.462;2023-03-14T09:10:44;99685.09;;;6.28;79.72
48630;BME280;34426;52.180;4.462;2023-03-14T09:13:09;99703.34;;;6.19;82.37
48630;BME280;34426;52.180;4.462;2023-03-14T09:15:50;99721.25;;;5.96;83.45
48630;BME280;34426;52.180;4.462;2023-03-14T09:18:20;99735.94;;;5.96;85.96
48630;BME280;34426;52.180;4.462;2023-03-14T09:21:10;99751.28;;;5.77;85.83
48630;BME280;34426;52.180;4.462;2023-03-14T09:26:25;99767.19;;;5.87;85.97
48630;BME280;34426;52.180;4.462;2023-03-14T09:28:50;99759.56;;;5.99;85.31
48630;BME280;34426;52.180;4.462;2023-03-14T09:34:28;99764.34;;;6.09;84.38
48630;BME280;34426;52.180;4.462;2023-03-14T09:36:53;99765.47;;;6.13;82.28
48630;BME280;34426;52.180;4.462;2023-03-14T09:39:19;99778.34;;;6.24;83.15
48630;BME280;34426;52.180;4.462;2023-03-14T09:41:52;99792.56;;;6.32;80.84
48630;BME280;34426;52.180;4.462;2023-03-14T09:44:25;99809.00;;;6.39;79.97
48630;BME280;34426;52.180;4.462;2023-03-14T09:46:54;99823.34;;;6.26;78.86
48630;BME280;34426;52.180;4.462;2023-03-14T09:49:29;99841.63;;;6.22;80.54
48630;BME280;34426;52.180;4.462;2023-03-14T09:52:06;99848.16;;;6.06;79.66
48630;BME280;34426;52.180;4.462;2023-03-14T09:54:38;99852.69;;;6.17;80.17
48630;BME280;34426;52.180;4.462;2023-03-14T09:57:25;99865.34;;;6.03;79.28
48630;BME280;34426;52.180;4.462;2023-03-14T10:00:00;99872.84;;;6.07;77.98
48630;BME280;34426;52.180;4.462;2023-03-14T10:02:35;99882.59;;;6.10;75.48
48630;BME280;34426;52.180;4.462;2023-03-14T10:05:18;99882.72;;;6.20;77.49
48630;BME280;34426;52.180;4.462;2023-03-14T10:07:47;99919.22;;;6.33;76.36
48630;BME280;34426;52.180;4.462;2023-03-14T10:10:22;99917.38;;;6.44;73.07
48630;BME280;34426;52.180;4.462;2023-03-14T10:13:17;99920.84;;;6.61;73.83
48630;BME280;34426;52.180;4.462;2023-03-14T10:15:50;99934.88;;;6.77;70.18
48630;BME280;34426;52.180;4.462;2023-03-14T10:18:16;99944.88;;;6.78;70.69
48630;BME280;34426;52.180;4.462;2023-03-14T10:20:45;99962.75;;;6.87;69.73
48630;BME280;34426;52.180;4.462;2023-03-14T10:23:24;99960.94;;;6.71;69.17
48630;BME280;34426;52.180;4.462;2023-03-14T10:26:04;99965.09;;;6.68;68.58
48630;BME280;34426;52.180;4.462;2023-03-14T10:28:32;99982.69;;;6.79;68.73
48630;BME280;34426;52.180;4.462;2023-03-14T10:30:58;99985.38;;;6.68;66.18
48630;BME280;34426;52.180;4.462;2023-03-14T10:33:27;100000.41;;;6.73;67.37
48630;BME280;34426;52.180;4.462;2023-03-14T10:35:57;100017.66;;;6.75;68.17
48630;BME280;34426;52.180;4.462;2023-03-14T10:38:27;100021.16;;;6.92;67.57
48630;BME280;34426;52.180;4.462;2023-03-14T10:40:54;100016.88;;;7.11;65.41
48630;BME280;34426;52.180;4.462;2023-03-14T10:43:32;100029.09;;;7.10;64.81
48630;BME280;34426;52.180;4.462;2023-03-14T10:46:09;100052.59;;;6.92;65.05
48630;BME280;34426;52.180;4.462;2023-03-14T10:48:38;100056.22;;;6.98;64.88
48630;BME280;34426;52.180;4.462;2023-03-14T10:51:07;100061.59;;;6.78;65.42
48630;BME280;34426;52.180;4.462;2023-03-14T10:53:44;100074.47;;;6.84;65.52
48630;BME280;34426;52.180;4.462;2023-03-14T10:56:18;100079.75;;;6.85;64.56
48630;BME280;34426;52.180;4.462;2023-03-14T10:58:48;100076.78;;;6.97;65.60
48630;BME280;34426;52.180;4.462;2023-03-14T11:01:30;100109.56;;;6.95;61.26
48630;BME280;34426;52.180;4.462;2023-03-14T11:04:08;100101.53;;;6.98;62.97
48630;BME280;34426;52.180;4.462;2023-03-14T11:06:48;100123.31;;;7.07;60.77
48630;BME280;34426;52.180;4.462;2023-03-14T11:09:21;100132.59;;;7.17;60.01
48630;BME280;34426;52.180;4.462;2023-03-14T11:11:47;100144.56;;;7.18;58.05
48630;BME280;34426;52.180;4.462;2023-03-14T11:14:20;100156.00;;;7.21;58.37
48630;BME280;34426;52.180;4.462;2023-03-14T11:16:53;100164.28;;;7.16;58.60
48630;BME280;34426;52.180;4.462;2023-03-14T11:19:50;100173.41;;;7.39;60.01
48630;BME280;34426;52.180;4.462;2023-03-14T11:22:28;100178.22;;;7.48;57.79
48630;BME280;34426;52.180;4.462;2023-03-14T11:25:29;100179.59;;;7.46;60.42
48630;BME280;34426;52.180;4.462;2023-03-14T11:28:06;100188.59;;;7.58;57.21
48630;BME280;34426;52.180;4.462;2023-03-14T11:30:38;100213.59;;;7.80;57.03
48630;BME280;34426;52.180;4.462;2023-03-14T11:33:17;100210.59;;;7.91;55.21
48630;BME280;34426;52.180;4.462;2023-03-14T11:35:48;100215.22;;;8.13;56.37
48630;BME280;34426;52.180;4.462;2023-03-14T11:38:28;100223.19;;;8.36;52.86
48630;BME280;34426;52.180;4.462;2023-03-14T11:41:02;100239.16;;;8.46;53.48
48630;BME280;34426;52.180;4.462;2023-03-14T11:43:34;100243.25;;;8.38;54.95
48630;BME280;34426;52.180;4.462;2023-03-14T11:46:07;100252.28;;;8.50;50.90
48630;BME280;34426;52.180;4.462;2023-03-14T11:48:39;100260.16;;;8.68;51.07
48630;BME280;34426;52.180;4.462;2023-03-14T11:51:21;100262.66;;;8.60;51.46
48630;BME280;34426;52.180;4.462;2023-03-14T11:54:02;100262.66;;;8.28;50.40
48630;BME280;34426;52.180;4.462;2023-03-14T11:56:37;100267.84;;;8.46;51.06
48630;BME280;34426;52.180;4.462;2023-03-14T11:59:09;100280.59;;;8.37;53.12
48630;BME280;34426;52.180;4.462;2023-03-14T12:01:41;100278.22;;;8.24;50.57
48630;BME280;34426;52.180;4.462;2023-03-14T12:04:13;100286.19;;;8.37;50.69
48630;BME280;34426;52.180;4.462;2023-03-14T12:06:47;100303.31;;;8.24;52.24
48630;BME280;34426;52.180;4.462;2023-03-14T12:09:16;100319.44;;;8.17;50.89
48630;BME280;34426;52.180;4.462;2023-03-14T12:11:47;100308.50;;;8.10;51.18
48630;BME280;34426;52.180;4.462;2023-03-14T12:14:19;100306.25;;;7.75;51.10
48630;BME280;34426;52.180;4.462;2023-03-14T12:16:47;100317.56;;;7.95;55.18
48630;BME280;34426;52.180;4.462;2023-03-14T12:19:37;100330.00;;;8.15;55.19
48630;BME280;34426;52.180;4.462;2023-03-14T12:22:27;100336.19;;;8.22;51.07
48630;BME280;34426;52.180;4.462;2023-03-14T12:24:59;100341.72;;;8.17;50.70
48630;BME280;34426;52.180;4.462;2023-03-14T12:30:39;100345.28;;;7.85;46.62
48630;BME280;34426;52.180;4.462;2023-03-14T12:33:30;100358.75;;;7.93;45.28
48630;BME280;34426;52.180;4.462;2023-03-14T12:36:01;100351.59;;;8.02;48.47
48630;BME280;34426;52.180;4.462;2023-03-14T12:38:45;100360.63;;;8.15;49.55
48630;BME280;34426;52.180;4.462;2023-03-14T12:41:20;100360.63;;;8.15;46.95
48630;BME280;34426;52.180;4.462;2023-03-14T12:43:48;100375.22;;;8.27;48.13
48630;BME280;34426;52.180;4.462;2023-03-14T12:46:24;100380.03;;;8.63;45.97
48630;BME280;34426;52.180;4.462;2023-03-14T12:48:55;100391.53;;;8.40;45.97
48630;BME280;34426;52.180;4.462;2023-03-14T12:51:29;100383.44;;;8.39;46.45
48630;BME280;34426;52.180;4.462;2023-03-14T12:54:28;100403.84;;;8.44;48.33
48630;BME280;34426;52.180;4.462;2023-03-14T12:57:50;100412.50;;;8.21;46.79
48630;BME280;34426;52.180;4.462;2023-03-14T13:00:22;100423.72;;;8.31;45.04
48630;BME280;34426;52.180;4.462;2023-03-14T13:02:49;100424.00;;;8.56;45.49
48630;BME280;34426;52.180;4.462;2023-03-14T13:05:18;100422.88;;;8.89;44.91
48630;BME280;34426;52.180;4.462;2023-03-14T13:08:06;100435.06;;;9.20;44.68
48630;BME280;34426;52.180;4.462;2023-03-14T13:10:40;100442.94;;;9.28;43.55
48630;BME280;34426;52.180;4.462;2023-03-14T13:13:20;100448.94;;;9.10;41.92
48630;BME280;34426;52.180;4.462;2023-03-14T13:15:47;100444.84;;;9.23;41.76
48630;BME280;34426;52.180;4.462;2023-03-14T13:18:15;100454.03;;;9.18;42.70
48630;BME280;34426;52.180;4.462;2023-03-14T13:20:50;100466.56;;;9.63;41.67
48630;BME280;34426;52.180;4.462;2023-03-14T13:23:25;100468.41;;;9.94;42.79
48630;BME280;34426;52.180;4.462;2023-03-14T13:25:51;100474.09;;;9.57;42.23
48630;BME280;34426;52.180;4.462;2023-03-14T13:28:19;100472.91;;;10.11;43.18
48630;BME280;34426;52.180;4.462;2023-03-14T13:30:49;100479.78;;;10.60;42.62
48630;BME280;34426;52.180;4.462;2023-03-14T13:33:26;100479.75;;;10.55;41.47
48630;BME280;34426;52.180;4.462;2023-03-14T13:35:57;100496.72;;;10.18;39.94
48630;BME280;34426;52.180;4.462;2023-03-14T13:38:35;100500.88;;;10.16;39.63
48630;BME280;34426;52.180;4.462;2023-03-14T13:41:04;100506.16;;;9.50;40.87
48630;BME280;34426;52.180;4.462;2023-03-14T13:43:33;100516.56;;;9.22;41.39
48630;BME280;34426;52.180;4.462;2023-03-14T13:46:05;100516.56;;;8.85;41.92
48630;BME280;34426;52.180;4.462;2023-03-14T13:48:43;100518.69;;;9.10;42.28
48630;BME280;34426;52.180;4.462;2023-03-14T13:51:12;100528.53;;;8.86;42.93
48630;BME280;34426;52.180;4.462;2023-03-14T13:53:43;100537.41;;;8.51;43.64